Terminal Aerodrome Forecast
Issued by NWS Sioux Falls, SD

Home | Current Version | Previous Version | Graphics & Text | Print | Product List | Glossary Off
Versions: 1 2 3 4 5 6 7 8 9 10 11

601
FTUS43 KFSD 271139
TAFHON
TAF
KHON 271139Z 2712/2812 34012KT P6SM BKN015 OVC025
     FM271600 34011G17KT P6SM OVC024
     FM272000 35011KT P6SM BKN030
     FM272100 36009KT P6SM SCT035
     FM280000 02009KT P6SM FEW200
     FM280400 05006KT P6SM SCT200=

USA.gov is the U.S. government's official web portal to all federal, state and local government web resources and services.